createdAt,value
2017-06-15T00:02:03.494Z,46.3
2017-06-15T00:07:03.247Z,46.2
2017-06-15T00:12:03.236Z,46.3
2017-06-15T00:17:03.612Z,46.3
2017-06-15T00:22:03.473Z,46.3
2017-06-15T00:27:03.634Z,46.2
2017-06-15T00:32:04.034Z,46.0
2017-06-15T00:37:03.884Z,46.1
2017-06-15T00:42:03.155Z,46.0
2017-06-15T00:47:03.137Z,46.0
2017-06-15T00:52:03.328Z,46.0
2017-06-15T00:57:03.558Z,45.9
2017-06-15T01:02:03.834Z,46.1
2017-06-15T01:07:03.375Z,46.1
2017-06-15T01:12:03.610Z,45.9
2017-06-15T01:17:03.907Z,45.9
2017-06-15T01:22:03.697Z,45.9
2017-06-15T01:27:03.777Z,45.9
2017-06-15T01:32:04.014Z,45.8
2017-06-15T01:37:03.493Z,45.8
2017-06-15T01:42:03.565Z,45.9
2017-06-15T01:47:03.141Z,45.9
2017-06-15T01:52:03.458Z,45.8
2017-06-15T01:57:03.571Z,45.8
2017-06-15T02:02:03.818Z,45.7
2017-06-15T02:07:03.259Z,45.6
2017-06-15T02:12:03.524Z,45.6
2017-06-15T02:17:03.739Z,45.6
2017-06-15T02:22:03.943Z,45.6
2017-06-15T02:27:03.285Z,45.6
2017-06-15T02:32:07.504Z,45.6
2017-06-15T02:37:04.016Z,45.6
2017-06-15T02:42:03.364Z,45.7
2017-06-15T02:47:20.132Z,45.7
2017-06-15T02:52:03.231Z,45.6
2017-06-15T02:57:03.755Z,45.6
2017-06-15T03:02:24.118Z,45.6
2017-06-15T03:07:03.562Z,45.5
2017-06-15T03:12:03.900Z,45.5
2017-06-15T03:17:28.553Z,45.5
2017-06-15T03:22:03.672Z,45.5
2017-06-15T03:27:03.293Z,45.5
2017-06-15T03:32:22.019Z,45.5
2017-06-15T03:37:03.984Z,45.5
2017-06-15T03:42:03.250Z,45.5
2017-06-15T03:47:24.405Z,45.3
2017-06-15T03:52:03.083Z,45.5
2017-06-15T03:57:03.549Z,45.4
2017-06-15T04:02:26.382Z,45.3
2017-06-15T04:07:03.345Z,45.4
2017-06-15T04:12:03.858Z,45.2
2017-06-15T04:17:21.242Z,45.1
2017-06-15T04:22:03.771Z,45.1
2017-06-15T04:27:03.421Z,44.8
2017-06-15T04:32:23.759Z,44.7
2017-06-15T04:37:03.311Z,44.7
2017-06-15T04:42:03.673Z,44.5
2017-06-15T04:47:28.821Z,44.4
2017-06-15T04:52:03.774Z,44.5
2017-06-15T04:57:03.327Z,44.5
2017-06-15T05:07:03.442Z,44.4
2017-06-15T05:12:03.924Z,44.3
2017-06-15T05:17:33.265Z,44.4
2017-06-15T05:22:03.213Z,44.4
2017-06-15T05:27:03.656Z,44.4
2017-06-15T05:32:25.760Z,44.4
2017-06-15T05:37:03.688Z,44.4
2017-06-15T05:42:03.924Z,44.4
2017-06-15T05:47:23.732Z,44.6
2017-06-15T05:52:03.442Z,44.6
2017-06-15T05:57:03.797Z,44.5
2017-06-15T06:02:26.469Z,44.6
2017-06-15T06:07:03.486Z,44.8
2017-06-15T06:12:03.999Z,44.6
2017-06-15T06:17:28.470Z,44.8
2017-06-15T06:22:03.372Z,45.0
2017-06-15T06:27:03.760Z,45.0
2017-06-15T06:32:28.417Z,45.1
2017-06-15T06:37:03.030Z,45.2
2017-06-15T06:42:03.518Z,45.3
2017-06-15T06:47:24.621Z,45.6
2017-06-15T06:52:03.485Z,45.6
2017-06-15T06:57:03.325Z,45.6
2017-06-15T07:02:33.166Z,45.8
2017-06-15T07:07:03.475Z,45.7
2017-06-15T07:12:03.891Z,45.7
2017-06-15T07:17:28.322Z,46.1
2017-06-15T07:22:03.970Z,46.0
2017-06-15T07:27:03.759Z,46.0
2017-06-15T07:32:23.403Z,46.1
2017-06-15T07:37:03.977Z,46.0
2017-06-15T07:42:03.413Z,46.6
2017-06-15T07:47:28.650Z,46.7
2017-06-15T07:52:03.643Z,46.7
2017-06-15T07:57:20.447Z,46.6
2017-06-15T08:02:03.759Z,47.1
2017-06-15T08:07:03.648Z,47.2
2017-06-15T08:12:04.241Z,47.2
2017-06-15T08:17:07.997Z,47.3
2017-06-15T08:27:03.794Z,47.7
2017-06-15T08:32:26.950Z,47.5
2017-06-15T08:37:03.683Z,48.0
2017-06-15T08:42:02.990Z,48.0
2017-06-15T08:47:28.298Z,48.2
2017-06-15T08:52:03.013Z,48.0
2017-06-15T08:57:03.545Z,48.1
2017-06-15T09:07:03.558Z,48.2
2017-06-15T09:12:03.967Z,48.7
2017-06-15T09:17:28.575Z,48.7
2017-06-15T09:22:03.785Z,48.4
2017-06-15T09:27:03.325Z,48.3
2017-06-15T09:32:27.812Z,48.6
2017-06-15T09:37:03.628Z,48.4
2017-06-15T09:42:03.904Z,48.7
2017-06-15T09:47:28.596Z,48.6
2017-06-15T09:52:03.640Z,48.6
2017-06-15T09:57:03.011Z,48.4
2017-06-15T10:02:28.140Z,48.6
2017-06-15T10:07:03.643Z,48.3
2017-06-15T10:12:03.258Z,48.3
2017-06-15T10:17:28.398Z,48.9
2017-06-15T10:22:03.716Z,48.6
2017-06-15T10:27:03.140Z,48.6
2017-06-15T10:32:23.476Z,48.6
2017-06-15T10:37:03.515Z,48.9
2017-06-15T10:42:03.857Z,48.6
2017-06-15T10:47:24.631Z,48.5
2017-06-15T10:52:03.523Z,48.3
2017-06-15T10:57:03.963Z,48.4
2017-06-15T11:02:25.093Z,47.8
2017-06-15T11:07:03.120Z,48.1
2017-06-15T11:12:03.662Z,48.0
2017-06-15T11:17:28.211Z,48.2
2017-06-15T11:22:03.209Z,48.2
2017-06-15T11:27:03.719Z,48.0
2017-06-15T11:32:24.991Z,48.1
2017-06-15T11:37:03.684Z,48.0
2017-06-15T11:42:03.207Z,47.0
2017-06-15T11:47:24.067Z,47.2
2017-06-15T11:52:03.675Z,47.2
2017-06-15T11:57:03.079Z,47.5
2017-06-15T12:02:28.946Z,47.7
2017-06-15T12:07:03.584Z,47.6
2017-06-15T12:12:03.080Z,46.8
2017-06-15T12:17:24.390Z,47.7
2017-06-15T12:22:03.631Z,47.0
2017-06-15T12:27:04.051Z,47.0
2017-06-15T12:32:28.195Z,47.6
2017-06-15T12:37:03.922Z,47.8
2017-06-15T12:42:03.874Z,47.3
2017-06-15T12:47:28.534Z,47.5
2017-06-15T12:52:03.348Z,47.8
2017-06-15T12:57:03.771Z,47.9
2017-06-15T13:02:28.394Z,47.1
2017-06-15T13:07:03.696Z,46.8
2017-06-15T13:12:03.328Z,47.4
2017-06-15T13:17:24.319Z,47.6
2017-06-15T13:22:03.633Z,47.6
2017-06-15T13:27:03.989Z,47.4
2017-06-15T13:32:28.038Z,47.8
2017-06-15T13:37:03.415Z,47.5
2017-06-15T13:42:03.778Z,47.5
2017-06-15T13:47:23.581Z,47.7
2017-06-15T13:52:03.710Z,47.6
2017-06-15T13:57:03.127Z,47.6
2017-06-15T14:02:32.441Z,47.3
2017-06-15T14:07:03.259Z,47.3
2017-06-15T14:12:03.789Z,47.6
2017-06-15T14:22:03.799Z,47.4
2017-06-15T14:27:03.082Z,47.5
2017-06-15T14:32:25.059Z,46.5
2017-06-15T14:37:03.791Z,46.2
2017-06-15T14:42:03.192Z,44.6
2017-06-15T14:47:28.540Z,43.0
2017-06-15T14:52:03.721Z,43.0
2017-06-15T14:57:03.080Z,43.4
2017-06-15T15:02:24.471Z,46.2
2017-06-15T15:07:03.359Z,46.2
2017-06-15T15:12:03.820Z,46.2
2017-06-15T15:17:21.972Z,45.4
2017-06-15T15:22:03.591Z,45.1
2017-06-15T15:27:03.448Z,46.1
2017-06-15T15:32:29.015Z,47.6
2017-06-15T15:37:03.175Z,48.3
2017-06-15T15:42:03.667Z,48.5
2017-06-15T15:47:22.693Z,48.5
2017-06-15T15:52:03.565Z,48.2
2017-06-15T15:57:03.946Z,48.4
2017-06-15T16:02:27.928Z,48.4
2017-06-15T16:07:03.746Z,47.7
2017-06-15T16:12:03.279Z,47.7
2017-06-15T16:17:24.377Z,47.7
2017-06-15T16:22:03.225Z,47.9
2017-06-15T16:27:03.688Z,47.9
2017-06-15T16:32:22.295Z,48.3
2017-06-15T16:37:03.463Z,48.3
2017-06-15T16:42:03.756Z,48.0
2017-06-15T16:47:27.995Z,48.0
2017-06-15T16:52:03.582Z,48.0
2017-06-15T16:57:03.014Z,48.0
2017-06-15T17:02:31.640Z,48.1
2017-06-15T17:07:03.992Z,48.3
2017-06-15T17:12:03.605Z,48.0
2017-06-15T17:17:28.574Z,48.3
2017-06-15T17:22:03.390Z,48.3
2017-06-15T17:27:03.823Z,48.3
2017-06-15T17:32:23.302Z,48.7
2017-06-15T17:37:04.151Z,48.7
2017-06-15T17:42:03.070Z,48.8
2017-06-15T17:47:23.827Z,48.9
2017-06-15T17:52:03.247Z,48.9
2017-06-15T17:57:03.022Z,48.7
2017-06-15T18:02:24.781Z,48.9
2017-06-15T18:07:03.898Z,49.3
2017-06-15T18:12:03.243Z,48.9
2017-06-15T18:17:23.252Z,48.8
2017-06-15T18:22:03.568Z,48.9
2017-06-15T18:27:03.900Z,49.0
2017-06-15T18:32:26.388Z,49.2
2017-06-15T18:37:03.819Z,49.2
2017-06-15T18:42:03.303Z,49.8
2017-06-15T18:47:23.350Z,49.5
2017-06-15T18:52:03.822Z,48.9
2017-06-15T18:57:03.890Z,48.7
2017-06-15T19:02:16.128Z,48.4
2017-06-15T19:07:03.517Z,48.4
2017-06-15T19:12:03.985Z,48.4
2017-06-15T19:17:15.601Z,48.4
2017-06-15T19:22:03.919Z,47.8
2017-06-15T19:27:03.436Z,47.8
2017-06-15T19:32:24.974Z,48.3
2017-06-15T19:37:04.008Z,48.3
2017-06-15T19:42:03.305Z,48.4
2017-06-15T19:47:33.436Z,48.3
2017-06-15T19:52:03.104Z,48.3
2017-06-15T19:57:03.505Z,48.4
2017-06-15T20:02:16.881Z,48.2
2017-06-15T20:07:03.221Z,48.2
2017-06-15T20:12:03.767Z,48.2
2017-06-15T20:17:08.156Z,48.1
2017-06-15T20:22:03.677Z,48.1
2017-06-15T20:27:04.136Z,47.9
2017-06-15T20:32:06.469Z,47.9
2017-06-15T20:37:03.668Z,47.9
2017-06-15T20:42:03.974Z,48.0
2017-06-15T20:47:03.315Z,48.0
2017-06-15T20:52:03.585Z,48.0
2017-06-15T20:57:03.874Z,48.0
2017-06-15T21:02:09.622Z,47.9
2017-06-15T21:07:03.287Z,47.9
2017-06-15T21:12:03.759Z,47.9
2017-06-15T21:17:04.200Z,47.9
2017-06-15T21:22:03.452Z,48.0
2017-06-15T21:27:03.754Z,47.7
2017-06-15T21:32:03.988Z,47.8
2017-06-15T21:37:03.362Z,47.8
2017-06-15T21:42:03.519Z,48.0
2017-06-15T21:47:03.896Z,48.0
2017-06-15T21:52:03.086Z,48.0
2017-06-15T21:57:03.362Z,48.0
2017-06-15T22:02:03.987Z,48.1
2017-06-15T22:07:03.391Z,48.0
2017-06-15T22:12:03.698Z,48.1
2017-06-15T22:22:03.949Z,48.0
2017-06-15T22:27:03.574Z,47.9
2017-06-15T22:32:03.723Z,48.0
2017-06-15T22:37:03.801Z,47.9
2017-06-15T22:42:03.872Z,48.1
2017-06-15T22:47:04.068Z,48.2
2017-06-15T22:52:03.146Z,48.1
2017-06-15T22:57:03.289Z,48.1
2017-06-15T23:02:03.476Z,47.9
2017-06-15T23:07:03.382Z,48.2
2017-06-15T23:12:03.810Z,48.1
2017-06-15T23:17:03.358Z,47.9
2017-06-15T23:22:03.113Z,48.0
2017-06-15T23:27:03.410Z,47.9
2017-06-15T23:32:03.663Z,48.2
2017-06-15T23:37:03.892Z,48.2
2017-06-15T23:42:03.281Z,48.3
2017-06-15T23:47:03.340Z,48.3
2017-06-15T23:52:03.601Z,48.4
2017-06-15T23:57:03.909Z,48.6
